Terminal Aerodrome Forecast
Issued by NWS

Home | Current Version | Previous Version | Text Only | Print | Product List | Glossary On
Versions: 1 2 3 4 5 6 7 8 9 10 11 12 13 14
661
FTUS44 KTSA 091720
TAFBVO
TAF
KBVO 091720Z 0918/1018 33011G18KT P6SM FEW080
     FM100000 VRB04KT P6SM FEW250
     FM101500 18008KT P6SM SCT250=

USA.gov is the U.S. government's official web portal to all federal, state and local government web resources and services.